sensor_id;sensor_type;location;lat;lon;timestamp;temperature;humidity
35523;DHT22;61478;50.820;4.330;2022-10-16T00:02:06;14.70;99.90
35523;DHT22;61478;50.820;4.330;2022-10-16T00:04:32;14.60;99.90
35523;DHT22;61478;50.820;4.330;2022-10-16T00:06:58;14.60;99.90
35523;DHT22;61478;50.820;4.330;2022-10-16T00:09:24;14.60;99.90
35523;DHT22;61478;50.820;4.330;2022-10-16T00:11:49;14.60;99.90
35523;DHT22;61478;50.820;4.330;2022-10-16T00:14:16;14.50;99.90
35523;DHT22;61478;50.820;4.330;2022-10-16T00:16:42;14.60;99.90
35523;DHT22;61478;50.820;4.330;2022-10-16T00:19:09;14.60;99.90
35523;DHT22;61478;50.820;4.330;2022-10-16T00:21:36;14.60;99.90
35523;DHT22;61478;50.820;4.330;2022-10-16T00:24:05;14.50;99.90
35523;DHT22;61478;50.820;4.330;2022-10-16T00:26:33;14.50;99.90
35523;DHT22;61478;50.820;4.330;2022-10-16T00:28:59;14.50;99.90
35523;DHT22;61478;50.820;4.330;2022-10-16T00:31:26;14.50;99.90
35523;DHT22;61478;50.820;4.330;2022-10-16T00:33:53;14.50;99.90
35523;DHT22;61478;50.820;4.330;2022-10-16T00:36:21;14.40;99.90
35523;DHT22;61478;50.820;4.330;2022-10-16T00:38:49;14.40;99.90
35523;DHT22;61478;50.820;4.330;2022-10-16T00:41:16;14.40;99.90
35523;DHT22;61478;50.820;4.330;2022-10-16T00:43:49;14.50;99.90
35523;DHT22;61478;50.820;4.330;2022-10-16T00:46:25;14.40;99.90
35523;DHT22;61478;50.820;4.330;2022-10-16T00:51:24;14.40;99.90
35523;DHT22;61478;50.820;4.330;2022-10-16T00:53:51;14.40;99.90
35523;DHT22;61478;50.820;4.330;2022-10-16T00:56:18;14.40;99.90
35523;DHT22;61478;50.820;4.330;2022-10-16T00:58:44;14.40;99.90
35523;DHT22;61478;50.820;4.330;2022-10-16T01:01:10;14.40;99.90
35523;DHT22;61478;50.820;4.330;2022-10-16T01:03:36;14.30;99.90
35523;DHT22;61478;50.820;4.330;2022-10-16T01:06:24;14.30;99.90
35523;DHT22;61478;50.820;4.330;2022-10-16T01:12:14;14.30;99.90
35523;DHT22;61478;50.820;4.330;2022-10-16T01:14:48;14.30;99.90
35523;DHT22;61478;50.820;4.330;2022-10-16T01:17:28;14.30;99.90
35523;DHT22;61478;50.820;4.330;2022-10-16T01:23:09;14.30;99.90
35523;DHT22;61478;50.820;4.330;2022-10-16T01:28:27;14.30;99.90
35523;DHT22;61478;50.820;4.330;2022-10-16T01:30:58;14.30;99.90
35523;DHT22;61478;50.820;4.330;2022-10-16T01:33:45;14.30;99.90
35523;DHT22;61478;50.820;4.330;2022-10-16T01:36:28;14.30;99.90
35523;DHT22;61478;50.820;4.330;2022-10-16T01:38:56;14.30;99.90
35523;DHT22;61478;50.820;4.330;2022-10-16T01:41:32;14.30;99.90
35523;DHT22;61478;50.820;4.330;2022-10-16T01:44:03;14.30;99.90
35523;DHT22;61478;50.820;4.330;2022-10-16T01:46:33;14.30;99.90
35523;DHT22;61478;50.820;4.330;2022-10-16T01:49:03;14.30;99.90
35523;DHT22;61478;50.820;4.330;2022-10-16T01:51:29;14.30;99.90
35523;DHT22;61478;50.820;4.330;2022-10-16T01:53:58;14.30;99.90
35523;DHT22;61478;50.820;4.330;2022-10-16T01:56:25;14.30;99.90
35523;DHT22;61478;50.820;4.330;2022-10-16T01:59:06;14.20;99.90
35523;DHT22;61478;50.820;4.330;2022-10-16T02:01:34;14.20;99.90
35523;DHT22;61478;50.820;4.330;2022-10-16T02:04:08;14.20;99.90
35523;DHT22;61478;50.820;4.330;2022-10-16T02:06:34;14.10;99.90
35523;DHT22;61478;50.820;4.330;2022-10-16T02:09:01;14.20;99.90
35523;DHT22;61478;50.820;4.330;2022-10-16T02:11:27;14.10;99.90
35523;DHT22;61478;50.820;4.330;2022-10-16T02:13:59;14.10;99.90
35523;DHT22;61478;50.820;4.330;2022-10-16T02:16:39;14.20;99.90
35523;DHT22;61478;50.820;4.330;2022-10-16T02:19:06;14.10;99.90
35523;DHT22;61478;50.820;4.330;2022-10-16T02:26:59;14.20;99.90
35523;DHT22;61478;50.820;4.330;2022-10-16T02:29:27;14.20;99.90
35523;DHT22;61478;50.820;4.330;2022-10-16T02:31:57;14.10;99.90
35523;DHT22;61478;50.820;4.330;2022-10-16T02:34:26;14.10;99.90
35523;DHT22;61478;50.820;4.330;2022-10-16T02:36:54;14.10;99.90
35523;DHT22;61478;50.820;4.330;2022-10-16T02:39:21;14.10;99.90
35523;DHT22;61478;50.820;4.330;2022-10-16T02:41:47;14.10;99.90
35523;DHT22;61478;50.820;4.330;2022-10-16T02:44:13;14.10;99.90
35523;DHT22;61478;50.820;4.330;2022-10-16T02:46:39;14.10;99.90
35523;DHT22;61478;50.820;4.330;2022-10-16T02:49:05;14.00;99.90
35523;DHT22;61478;50.820;4.330;2022-10-16T02:51:31;14.10;99.90
35523;DHT22;61478;50.820;4.330;2022-10-16T02:53:57;14.10;99.90
35523;DHT22;61478;50.820;4.330;2022-10-16T02:56:25;14.00;99.90
35523;DHT22;61478;50.820;4.330;2022-10-16T02:58:51;14.00;99.90
35523;DHT22;61478;50.820;4.330;2022-10-16T03:01:17;14.00;99.90
35523;DHT22;61478;50.820;4.330;2022-10-16T03:03:43;14.10;99.90
35523;DHT22;61478;50.820;4.330;2022-10-16T03:06:09;14.10;99.90
35523;DHT22;61478;50.820;4.330;2022-10-16T03:08:35;14.10;99.90
35523;DHT22;61478;50.820;4.330;2022-10-16T03:11:01;14.10;99.90
35523;DHT22;61478;50.820;4.330;2022-10-16T03:13:26;14.10;99.90
35523;DHT22;61478;50.820;4.330;2022-10-16T03:15:52;14.10;99.90
35523;DHT22;61478;50.820;4.330;2022-10-16T03:18:18;14.00;99.90
35523;DHT22;61478;50.820;4.330;2022-10-16T03:20:44;14.00;99.90
35523;DHT22;61478;50.820;4.330;2022-10-16T03:23:10;14.00;99.90
35523;DHT22;61478;50.820;4.330;2022-10-16T03:25:36;14.00;99.90
35523;DHT22;61478;50.820;4.330;2022-10-16T03:28:02;14.10;99.90
35523;DHT22;61478;50.820;4.330;2022-10-16T03:30:28;14.10;99.90
35523;DHT22;61478;50.820;4.330;2022-10-16T03:32:54;14.00;99.90
35523;DHT22;61478;50.820;4.330;2022-10-16T03:35:21;14.10;99.90
35523;DHT22;61478;50.820;4.330;2022-10-16T03:37:47;14.00;99.90
35523;DHT22;61478;50.820;4.330;2022-10-16T03:40:13;14.00;99.90
35523;DHT22;61478;50.820;4.330;2022-10-16T03:42:39;14.00;99.90
35523;DHT22;61478;50.820;4.330;2022-10-16T03:45:05;14.10;99.90
35523;DHT22;61478;50.820;4.330;2022-10-16T03:47:31;14.00;99.90
35523;DHT22;61478;50.820;4.330;2022-10-16T03:49:59;14.00;99.90
35523;DHT22;61478;50.820;4.330;2022-10-16T03:52:25;14.00;99.90
35523;DHT22;61478;50.820;4.330;2022-10-16T03:54:51;14.00;99.90
35523;DHT22;61478;50.820;4.330;2022-10-16T03:57:17;14.00;99.90
35523;DHT22;61478;50.820;4.330;2022-10-16T03:59:43;14.00;99.90
35523;DHT22;61478;50.820;4.330;2022-10-16T04:02:09;14.00;99.90
35523;DHT22;61478;50.820;4.330;2022-10-16T04:04:36;14.00;99.90
35523;DHT22;61478;50.820;4.330;2022-10-16T04:07:02;13.90;99.90
35523;DHT22;61478;50.820;4.330;2022-10-16T04:09:28;14.00;99.90
35523;DHT22;61478;50.820;4.330;2022-10-16T04:11:54;14.00;99.90
35523;DHT22;61478;50.820;4.330;2022-10-16T04:14:20;14.00;99.90
35523;DHT22;61478;50.820;4.330;2022-10-16T04:16:45;14.00;99.90
35523;DHT22;61478;50.820;4.330;2022-10-16T04:19:12;14.00;99.90
35523;DHT22;61478;50.820;4.330;2022-10-16T04:21:38;14.00;99.90
35523;DHT22;61478;50.820;4.330;2022-10-16T04:24:04;14.00;99.90
35523;DHT22;61478;50.820;4.330;2022-10-16T04:26:30;14.00;99.90
35523;DHT22;61478;50.820;4.330;2022-10-16T04:28:56;14.00;99.90
35523;DHT22;61478;50.820;4.330;2022-10-16T04:31:22;14.00;99.90
35523;DHT22;61478;50.820;4.330;2022-10-16T04:33:48;14.00;99.90
35523;DHT22;61478;50.820;4.330;2022-10-16T04:36:14;14.00;99.90
35523;DHT22;61478;50.820;4.330;2022-10-16T04:38:40;14.00;99.90
35523;DHT22;61478;50.820;4.330;2022-10-16T04:41:07;13.90;99.90
35523;DHT22;61478;50.820;4.330;2022-10-16T04:43:33;13.90;99.90
35523;DHT22;61478;50.820;4.330;2022-10-16T04:45:59;13.90;99.90
35523;DHT22;61478;50.820;4.330;2022-10-16T04:48:26;13.80;99.90
35523;DHT22;61478;50.820;4.330;2022-10-16T04:50:51;13.80;99.90
35523;DHT22;61478;50.820;4.330;2022-10-16T04:53:18;13.90;99.90
35523;DHT22;61478;50.820;4.330;2022-10-16T04:55:43;13.90;99.90
35523;DHT22;61478;50.820;4.330;2022-10-16T04:58:10;13.80;99.90
35523;DHT22;61478;50.820;4.330;2022-10-16T05:00:36;13.90;99.90
35523;DHT22;61478;50.820;4.330;2022-10-16T05:03:02;13.80;99.90
35523;DHT22;61478;50.820;4.330;2022-10-16T05:05:31;13.80;99.90
35523;DHT22;61478;50.820;4.330;2022-10-16T05:07:57;13.80;99.90
35523;DHT22;61478;50.820;4.330;2022-10-16T05:10:23;13.80;99.90
35523;DHT22;61478;50.820;4.330;2022-10-16T05:12:49;13.80;99.90
35523;DHT22;61478;50.820;4.330;2022-10-16T05:15:15;13.80;99.90
35523;DHT22;61478;50.820;4.330;2022-10-16T05:17:41;13.80;99.90
35523;DHT22;61478;50.820;4.330;2022-10-16T05:20:07;13.80;99.90
35523;DHT22;61478;50.820;4.330;2022-10-16T05:22:33;13.80;99.90
35523;DHT22;61478;50.820;4.330;2022-10-16T05:24:59;13.80;99.90
35523;DHT22;61478;50.820;4.330;2022-10-16T05:27:25;13.80;99.90
35523;DHT22;61478;50.820;4.330;2022-10-16T05:29:51;13.70;99.90
35523;DHT22;61478;50.820;4.330;2022-10-16T05:32:17;13.70;99.90
35523;DHT22;61478;50.820;4.330;2022-10-16T05:34:44;13.80;99.90
35523;DHT22;61478;50.820;4.330;2022-10-16T05:37:11;13.70;99.90
35523;DHT22;61478;50.820;4.330;2022-10-16T05:39:38;13.70;99.90
35523;DHT22;61478;50.820;4.330;2022-10-16T05:42:05;13.70;99.90
35523;DHT22;61478;50.820;4.330;2022-10-16T05:44:31;13.70;99.90
35523;DHT22;61478;50.820;4.330;2022-10-16T05:46:57;13.70;99.90
35523;DHT22;61478;50.820;4.330;2022-10-16T05:49:23;13.70;99.90
35523;DHT22;61478;50.820;4.330;2022-10-16T05:51:49;13.70;99.90
35523;DHT22;61478;50.820;4.330;2022-10-16T05:54:15;13.70;99.90
35523;DHT22;61478;50.820;4.330;2022-10-16T05:56:41;13.70;99.90
35523;DHT22;61478;50.820;4.330;2022-10-16T05:59:07;13.70;99.90
35523;DHT22;61478;50.820;4.330;2022-10-16T06:01:33;13.70;99.90
35523;DHT22;61478;50.820;4.330;2022-10-16T06:03:59;13.70;99.90
35523;DHT22;61478;50.820;4.330;2022-10-16T06:06:27;13.70;99.90
35523;DHT22;61478;50.820;4.330;2022-10-16T06:08:55;13.70;99.90
35523;DHT22;61478;50.820;4.330;2022-10-16T06:11:25;13.60;99.90
35523;DHT22;61478;50.820;4.330;2022-10-16T06:13:57;13.60;99.90
35523;DHT22;61478;50.820;4.330;2022-10-16T06:16:24;13.70;99.90
35523;DHT22;61478;50.820;4.330;2022-10-16T06:18:51;13.70;99.90
35523;DHT22;61478;50.820;4.330;2022-10-16T06:21:20;13.70;99.90
35523;DHT22;61478;50.820;4.330;2022-10-16T06:23:46;13.70;99.90
35523;DHT22;61478;50.820;4.330;2022-10-16T06:26:14;13.70;99.90
35523;DHT22;61478;50.820;4.330;2022-10-16T06:28:41;13.70;99.90
35523;DHT22;61478;50.820;4.330;2022-10-16T06:31:08;13.70;99.90
35523;DHT22;61478;50.820;4.330;2022-10-16T06:33:35;13.70;99.90
35523;DHT22;61478;50.820;4.330;2022-10-16T06:36:03;13.70;99.90
35523;DHT22;61478;50.820;4.330;2022-10-16T06:38:29;13.70;99.90
35523;DHT22;61478;50.820;4.330;2022-10-16T06:40:55;13.80;99.90
35523;DHT22;61478;50.820;4.330;2022-10-16T06:43:21;13.80;99.90
35523;DHT22;61478;50.820;4.330;2022-10-16T06:45:52;13.80;99.90
35523;DHT22;61478;50.820;4.330;2022-10-16T06:48:18;13.80;99.90
35523;DHT22;61478;50.820;4.330;2022-10-16T06:50:44;13.80;99.90
35523;DHT22;61478;50.820;4.330;2022-10-16T06:53:10;13.90;99.90
35523;DHT22;61478;50.820;4.330;2022-10-16T06:55:36;13.90;99.90
35523;DHT22;61478;50.820;4.330;2022-10-16T06:58:02;13.90;99.90
35523;DHT22;61478;50.820;4.330;2022-10-16T07:00:28;14.00;99.90
35523;DHT22;61478;50.820;4.330;2022-10-16T07:02:54;14.00;99.90
35523;DHT22;61478;50.820;4.330;2022-10-16T07:05:19;14.00;99.90
35523;DHT22;61478;50.820;4.330;2022-10-16T07:07:45;14.00;99.90
35523;DHT22;61478;50.820;4.330;2022-10-16T07:10:11;14.00;99.90
35523;DHT22;61478;50.820;4.330;2022-10-16T07:12:37;14.00;99.90
35523;DHT22;61478;50.820;4.330;2022-10-16T07:15:03;14.00;99.90
35523;DHT22;61478;50.820;4.330;2022-10-16T07:17:28;14.00;99.90
35523;DHT22;61478;50.820;4.330;2022-10-16T07:19:54;14.10;99.90
35523;DHT22;61478;50.820;4.330;2022-10-16T07:22:21;14.10;99.90
35523;DHT22;61478;50.820;4.330;2022-10-16T07:24:47;14.00;99.90
35523;DHT22;61478;50.820;4.330;2022-10-16T07:27:13;14.10;99.90
35523;DHT22;61478;50.820;4.330;2022-10-16T07:29:39;14.10;99.90
35523;DHT22;61478;50.820;4.330;2022-10-16T07:32:05;14.20;99.90
35523;DHT22;61478;50.820;4.330;2022-10-16T07:34:31;14.20;99.90
35523;DHT22;61478;50.820;4.330;2022-10-16T07:36:57;14.10;99.90
35523;DHT22;61478;50.820;4.330;2022-10-16T07:39:23;14.10;99.90
35523;DHT22;61478;50.820;4.330;2022-10-16T07:41:49;14.10;99.90
35523;DHT22;61478;50.820;4.330;2022-10-16T07:44:15;14.10;99.90
35523;DHT22;61478;50.820;4.330;2022-10-16T07:46:41;14.10;99.90
35523;DHT22;61478;50.820;4.330;2022-10-16T07:49:08;14.20;99.90
35523;DHT22;61478;50.820;4.330;2022-10-16T07:51:34;14.20;99.90
35523;DHT22;61478;50.820;4.330;2022-10-16T07:54:00;14.20;99.90
35523;DHT22;61478;50.820;4.330;2022-10-16T07:56:27;14.20;99.90
35523;DHT22;61478;50.820;4.330;2022-10-16T07:58:53;14.30;99.90
35523;DHT22;61478;50.820;4.330;2022-10-16T08:01:19;14.30;99.90
35523;DHT22;61478;50.820;4.330;2022-10-16T08:03:47;14.30;99.90
35523;DHT22;61478;50.820;4.330;2022-10-16T08:06:13;14.40;99.90
35523;DHT22;61478;50.820;4.330;2022-10-16T08:08:40;14.50;99.90
35523;DHT22;61478;50.820;4.330;2022-10-16T08:11:06;14.50;99.90
35523;DHT22;61478;50.820;4.330;2022-10-16T08:13:32;14.50;99.90
35523;DHT22;61478;50.820;4.330;2022-10-16T08:15:58;14.60;99.90
35523;DHT22;61478;50.820;4.330;2022-10-16T08:18:24;14.60;99.90
35523;DHT22;61478;50.820;4.330;2022-10-16T08:20:58;14.70;99.90
35523;DHT22;61478;50.820;4.330;2022-10-16T08:23:25;14.70;99.90
35523;DHT22;61478;50.820;4.330;2022-10-16T08:25:53;14.70;99.90
35523;DHT22;61478;50.820;4.330;2022-10-16T08:28:19;14.70;99.90
35523;DHT22;61478;50.820;4.330;2022-10-16T08:30:45;14.70;99.90
35523;DHT22;61478;50.820;4.330;2022-10-16T08:33:11;14.70;99.90
35523;DHT22;61478;50.820;4.330;2022-10-16T08:35:37;14.80;99.90
35523;DHT22;61478;50.820;4.330;2022-10-16T08:38:04;14.70;99.90
35523;DHT22;61478;50.820;4.330;2022-10-16T08:40:32;14.70;99.90
35523;DHT22;61478;50.820;4.330;2022-10-16T08:48:57;14.90;99.90
35523;DHT22;61478;50.820;4.330;2022-10-16T08:51:26;15.00;99.90
35523;DHT22;61478;50.820;4.330;2022-10-16T08:53:55;15.00;99.90
35523;DHT22;61478;50.820;4.330;2022-10-16T08:56:22;15.10;99.90
35523;DHT22;61478;50.820;4.330;2022-10-16T08:58:49;15.10;99.90
35523;DHT22;61478;50.820;4.330;2022-10-16T09:01:19;15.10;99.90
35523;DHT22;61478;50.820;4.330;2022-10-16T09:06:31;15.30;99.90
35523;DHT22;61478;50.820;4.330;2022-10-16T09:20:41;15.50;99.90
35523;DHT22;61478;50.820;4.330;2022-10-16T09:23:16;15.50;99.90
35523;DHT22;61478;50.820;4.330;2022-10-16T09:25:45;15.60;99.90
35523;DHT22;61478;50.820;4.330;2022-10-16T09:28:11;15.60;99.90
35523;DHT22;61478;50.820;4.330;2022-10-16T09:30:37;15.70;99.90
35523;DHT22;61478;50.820;4.330;2022-10-16T09:33:05;15.70;99.90
35523;DHT22;61478;50.820;4.330;2022-10-16T09:35:37;15.80;99.90
35523;DHT22;61478;50.820;4.330;2022-10-16T09:38:04;15.80;99.90
35523;DHT22;61478;50.820;4.330;2022-10-16T09:40:38;15.80;99.90
35523;DHT22;61478;50.820;4.330;2022-10-16T09:43:19;15.80;99.90
35523;DHT22;61478;50.820;4.330;2022-10-16T09:46:04;15.90;99.90
35523;DHT22;61478;50.820;4.330;2022-10-16T09:48:44;16.00;99.90
35523;DHT22;61478;50.820;4.330;2022-10-16T09:51:31;16.00;99.90
35523;DHT22;61478;50.820;4.330;2022-10-16T09:56:35;16.00;99.90
35523;DHT22;61478;50.820;4.330;2022-10-16T09:59:22;16.10;99.90
35523;DHT22;61478;50.820;4.330;2022-10-16T10:01:54;16.10;99.90
35523;DHT22;61478;50.820;4.330;2022-10-16T10:04:23;16.10;99.90
35523;DHT22;61478;50.820;4.330;2022-10-16T10:06:51;16.30;99.90
35523;DHT22;61478;50.820;4.330;2022-10-16T10:09:33;16.40;99.90
35523;DHT22;61478;50.820;4.330;2022-10-16T10:12:03;16.30;99.90
35523;DHT22;61478;50.820;4.330;2022-10-16T10:14:44;16.40;99.90
35523;DHT22;61478;50.820;4.330;2022-10-16T10:17:16;16.40;99.90
35523;DHT22;61478;50.820;4.330;2022-10-16T10:19:54;16.40;99.90
35523;DHT22;61478;50.820;4.330;2022-10-16T10:35:44;16.70;99.90
35523;DHT22;61478;50.820;4.330;2022-10-16T10:58:39;18.80;99.90
35523;DHT22;61478;50.820;4.330;2022-10-16T11:09:30;20.40;99.90
35523;DHT22;61478;50.820;4.330;2022-10-16T11:12:06;20.80;99.90
35523;DHT22;61478;50.820;4.330;2022-10-16T11:17:52;21.20;99.90
35523;DHT22;61478;50.820;4.330;2022-10-16T11:20:39;21.70;99.90
35523;DHT22;61478;50.820;4.330;2022-10-16T11:25:56;22.20;99.90
35523;DHT22;61478;50.820;4.330;2022-10-16T11:28:31;22.00;99.90
35523;DHT22;61478;50.820;4.330;2022-10-16T11:31:08;21.80;99.90
35523;DHT22;61478;50.820;4.330;2022-10-16T11:33:57;21.80;99.90
35523;DHT22;61478;50.820;4.330;2022-10-16T11:36:38;22.10;99.90
35523;DHT22;61478;50.820;4.330;2022-10-16T11:39:26;22.50;99.90
35523;DHT22;61478;50.820;4.330;2022-10-16T11:42:15;22.80;99.90
35523;DHT22;61478;50.820;4.330;2022-10-16T11:44:54;22.90;99.90
35523;DHT22;61478;50.820;4.330;2022-10-16T11:48:35;22.60;99.90
35523;DHT22;61478;50.820;4.330;2022-10-16T11:51:18;22.30;99.90
35523;DHT22;61478;50.820;4.330;2022-10-16T11:53:56;21.90;99.90
35523;DHT22;61478;50.820;4.330;2022-10-16T11:56:22;21.80;99.90
35523;DHT22;61478;50.820;4.330;2022-10-16T11:59:05;21.70;99.90
35523;DHT22;61478;50.820;4.330;2022-10-16T12:01:44;21.50;99.90
35523;DHT22;61478;50.820;4.330;2022-10-16T12:04:17;21.10;99.90
35523;DHT22;61478;50.820;4.330;2022-10-16T12:06:51;21.10;99.90
35523;DHT22;61478;50.820;4.330;2022-10-16T12:09:30;20.70;99.90
35523;DHT22;61478;50.820;4.330;2022-10-16T12:11:57;20.60;99.90
35523;DHT22;61478;50.820;4.330;2022-10-16T12:14:36;20.40;99.90
35523;DHT22;61478;50.820;4.330;2022-10-16T12:17:43;20.20;99.90
35523;DHT22;61478;50.820;4.330;2022-10-16T12:20:18;20.20;99.90
35523;DHT22;61478;50.820;4.330;2022-10-16T12:22:50;20.10;99.90
35523;DHT22;61478;50.820;4.330;2022-10-16T12:25:25;20.00;99.90
35523;DHT22;61478;50.820;4.330;2022-10-16T12:27:58;20.00;99.90
35523;DHT22;61478;50.820;4.330;2022-10-16T12:30:26;20.10;99.90
35523;DHT22;61478;50.820;4.330;2022-10-16T12:32:56;20.30;99.90
35523;DHT22;61478;50.820;4.330;2022-10-16T12:35:28;20.40;99.90
35523;DHT22;61478;50.820;4.330;2022-10-16T12:38:15;20.20;99.90
35523;DHT22;61478;50.820;4.330;2022-10-16T12:40:43;19.90;99.90
35523;DHT22;61478;50.820;4.330;2022-10-16T12:43:27;19.90;99.90
35523;DHT22;61478;50.820;4.330;2022-10-16T12:48:38;19.90;99.90
35523;DHT22;61478;50.820;4.330;2022-10-16T12:51:40;20.10;99.90
35523;DHT22;61478;50.820;4.330;2022-10-16T12:54:41;20.20;99.90
35523;DHT22;61478;50.820;4.330;2022-10-16T12:57:27;19.90;99.90
35523;DHT22;61478;50.820;4.330;2022-10-16T13:05:20;19.80;99.90
35523;DHT22;61478;50.820;4.330;2022-10-16T13:10:41;20.20;99.90
35523;DHT22;61478;50.820;4.330;2022-10-16T13:19:42;19.80;99.90
35523;DHT22;61478;50.820;4.330;2022-10-16T13:22:20;19.90;99.90
35523;DHT22;61478;50.820;4.330;2022-10-16T13:25:18;20.20;99.90
35523;DHT22;61478;50.820;4.330;2022-10-16T13:27:55;20.50;99.90
35523;DHT22;61478;50.820;4.330;2022-10-16T13:30:25;20.60;99.90
35523;DHT22;61478;50.820;4.330;2022-10-16T13:35:50;20.70;99.90
35523;DHT22;61478;50.820;4.330;2022-10-16T13:38:20;20.60;99.90
35523;DHT22;61478;50.820;4.330;2022-10-16T13:40:59;20.40;99.90
35523;DHT22;61478;50.820;4.330;2022-10-16T13:46:14;20.20;99.90
35523;DHT22;61478;50.820;4.330;2022-10-16T13:48:41;19.90;99.90
35523;DHT22;61478;50.820;4.330;2022-10-16T13:51:16;20.10;99.90
35523;DHT22;61478;50.820;4.330;2022-10-16T13:53:43;20.30;99.90
35523;DHT22;61478;50.820;4.330;2022-10-16T13:56:18;20.40;99.90
35523;DHT22;61478;50.820;4.330;2022-10-16T13:58:44;20.50;99.90
35523;DHT22;61478;50.820;4.330;2022-10-16T14:01:20;20.50;99.90
35523;DHT22;61478;50.820;4.330;2022-10-16T14:03:48;20.10;99.90
35523;DHT22;61478;50.820;4.330;2022-10-16T14:06:18;20.10;99.90
35523;DHT22;61478;50.820;4.330;2022-10-16T14:11:24;20.30;99.90
35523;DHT22;61478;50.820;4.330;2022-10-16T14:13:51;20.20;99.90
35523;DHT22;61478;50.820;4.330;2022-10-16T14:16:27;20.40;99.90
35523;DHT22;61478;50.820;4.330;2022-10-16T14:19:00;20.50;99.90
35523;DHT22;61478;50.820;4.330;2022-10-16T14:21:27;20.50;99.90
35523;DHT22;61478;50.820;4.330;2022-10-16T14:23:54;20.50;99.90
35523;DHT22;61478;50.820;4.330;2022-10-16T14:26:24;20.60;99.90
35523;DHT22;61478;50.820;4.330;2022-10-16T14:29:27;20.70;99.90
35523;DHT22;61478;50.820;4.330;2022-10-16T14:31:56;20.70;99.90
35523;DHT22;61478;50.820;4.330;2022-10-16T14:34:36;20.60;99.90
35523;DHT22;61478;50.820;4.330;2022-10-16T14:37:16;20.40;99.90
35523;DHT22;61478;50.820;4.330;2022-10-16T14:39:52;20.30;99.90
35523;DHT22;61478;50.820;4.330;2022-10-16T14:42:20;20.10;99.90
35523;DHT22;61478;50.820;4.330;2022-10-16T14:44:54;20.00;99.90
35523;DHT22;61478;50.820;4.330;2022-10-16T14:47:25;19.90;99.90
35523;DHT22;61478;50.820;4.330;2022-10-16T14:49:53;20.00;99.90
35523;DHT22;61478;50.820;4.330;2022-10-16T14:52:24;20.10;99.90
35523;DHT22;61478;50.820;4.330;2022-10-16T14:54:50;20.10;99.90
35523;DHT22;61478;50.820;4.330;2022-10-16T14:57:23;20.20;99.90
35523;DHT22;61478;50.820;4.330;2022-10-16T14:59:50;20.00;99.90
35523;DHT22;61478;50.820;4.330;2022-10-16T15:02:29;19.90;99.90
35523;DHT22;61478;50.820;4.330;2022-10-16T15:04:56;19.90;99.90
35523;DHT22;61478;50.820;4.330;2022-10-16T15:07:22;20.00;99.90
35523;DHT22;61478;50.820;4.330;2022-10-16T15:09:49;20.10;99.90
35523;DHT22;61478;50.820;4.330;2022-10-16T15:12:15;20.00;99.90
35523;DHT22;61478;50.820;4.330;2022-10-16T15:14:42;20.00;99.90
35523;DHT22;61478;50.820;4.330;2022-10-16T15:17:11;20.00;99.90
35523;DHT22;61478;50.820;4.330;2022-10-16T15:19:38;20.00;99.90
35523;DHT22;61478;50.820;4.330;2022-10-16T15:22:04;20.00;99.90
35523;DHT22;61478;50.820;4.330;2022-10-16T15:24:32;20.10;99.90
35523;DHT22;61478;50.820;4.330;2022-10-16T15:27:01;20.00;99.90
35523;DHT22;61478;50.820;4.330;2022-10-16T15:29:28;20.10;99.90
35523;DHT22;61478;50.820;4.330;2022-10-16T15:31:54;20.10;99.90
35523;DHT22;61478;50.820;4.330;2022-10-16T15:34:20;20.20;99.90
35523;DHT22;61478;50.820;4.330;2022-10-16T15:36:46;20.20;99.90
35523;DHT22;61478;50.820;4.330;2022-10-16T15:39:18;20.20;99.90
35523;DHT22;61478;50.820;4.330;2022-10-16T15:41:45;20.10;99.90
35523;DHT22;61478;50.820;4.330;2022-10-16T15:44:19;20.00;99.90
35523;DHT22;61478;50.820;4.330;2022-10-16T15:46:45;19.90;99.90
35523;DHT22;61478;50.820;4.330;2022-10-16T15:49:12;19.80;99.90
35523;DHT22;61478;50.820;4.330;2022-10-16T15:51:39;19.70;99.90
35523;DHT22;61478;50.820;4.330;2022-10-16T15:54:05;19.40;99.90
35523;DHT22;61478;50.820;4.330;2022-10-16T15:56:31;19.40;99.90
35523;DHT22;61478;50.820;4.330;2022-10-16T15:58:59;19.30;99.90
35523;DHT22;61478;50.820;4.330;2022-10-16T16:01:28;19.10;99.90
35523;DHT22;61478;50.820;4.330;2022-10-16T16:03:57;19.10;99.90
35523;DHT22;61478;50.820;4.330;2022-10-16T16:06:23;19.10;99.90
35523;DHT22;61478;50.820;4.330;2022-10-16T16:08:50;19.10;99.90
35523;DHT22;61478;50.820;4.330;2022-10-16T16:11:19;19.20;99.90
35523;DHT22;61478;50.820;4.330;2022-10-16T16:13:45;19.30;99.90
35523;DHT22;61478;50.820;4.330;2022-10-16T16:16:16;19.20;99.90
35523;DHT22;61478;50.820;4.330;2022-10-16T16:18:43;19.30;99.90
35523;DHT22;61478;50.820;4.330;2022-10-16T16:21:10;19.30;99.90
35523;DHT22;61478;50.820;4.330;2022-10-16T16:23:37;19.20;99.90
35523;DHT22;61478;50.820;4.330;2022-10-16T16:26:09;18.90;99.90
35523;DHT22;61478;50.820;4.330;2022-10-16T16:28:36;19.00;99.90
35523;DHT22;61478;50.820;4.330;2022-10-16T16:31:03;19.00;99.90
35523;DHT22;61478;50.820;4.330;2022-10-16T16:33:30;19.00;99.90
35523;DHT22;61478;50.820;4.330;2022-10-16T16:36:03;19.10;99.90
35523;DHT22;61478;50.820;4.330;2022-10-16T16:38:32;19.10;99.90
35523;DHT22;61478;50.820;4.330;2022-10-16T16:40:58;19.10;99.90
35523;DHT22;61478;50.820;4.330;2022-10-16T16:43:28;19.20;99.90
35523;DHT22;61478;50.820;4.330;2022-10-16T16:45:54;19.30;99.90
35523;DHT22;61478;50.820;4.330;2022-10-16T16:48:21;19.30;99.90
35523;DHT22;61478;50.820;4.330;2022-10-16T16:50:47;19.40;99.90
35523;DHT22;61478;50.820;4.330;2022-10-16T16:53:13;19.30;99.90
35523;DHT22;61478;50.820;4.330;2022-10-16T16:55:39;19.20;99.90
35523;DHT22;61478;50.820;4.330;2022-10-16T16:58:05;18.70;99.90
35523;DHT22;61478;50.820;4.330;2022-10-16T17:00:31;18.10;99.90
35523;DHT22;61478;50.820;4.330;2022-10-16T17:02:57;17.60;99.90
35523;DHT22;61478;50.820;4.330;2022-10-16T17:05:23;17.70;99.90
35523;DHT22;61478;50.820;4.330;2022-10-16T17:07:49;17.80;99.90
35523;DHT22;61478;50.820;4.330;2022-10-16T17:10:16;18.00;99.90
35523;DHT22;61478;50.820;4.330;2022-10-16T17:12:42;18.20;99.90
35523;DHT22;61478;50.820;4.330;2022-10-16T17:15:08;18.30;99.90
35523;DHT22;61478;50.820;4.330;2022-10-16T17:17:34;18.20;99.90
35523;DHT22;61478;50.820;4.330;2022-10-16T17:20:00;18.30;99.90
35523;DHT22;61478;50.820;4.330;2022-10-16T17:22:26;18.40;99.90
35523;DHT22;61478;50.820;4.330;2022-10-16T17:24:52;18.40;99.90
35523;DHT22;61478;50.820;4.330;2022-10-16T17:27:19;18.30;99.90
35523;DHT22;61478;50.820;4.330;2022-10-16T17:29:50;18.20;99.90
35523;DHT22;61478;50.820;4.330;2022-10-16T17:32:16;18.20;99.90
35523;DHT22;61478;50.820;4.330;2022-10-16T17:34:42;18.00;99.90
35523;DHT22;61478;50.820;4.330;2022-10-16T17:37:08;18.00;99.90
35523;DHT22;61478;50.820;4.330;2022-10-16T17:39:34;18.10;99.90